CW2798 Aduanas ES current weather conditions

sailwx.info

Air temperature 12.2° C
Dewpoint 9.1° C

Last reported at 2015-Apr-02 02:47 UTC.
Time now 2015-Apr-02 03:15 UTC

Location: N 38°48' E 000°11'.
View on Google Maps.

See reports from other nearby stations

  
Tides and Currents Weather Stations Pressure Air Temp Water Temp Dewpoint Dewpoint Depression Visibility Wind Speed Wind Dir Waves Ship Positions
date/time (UTC)wind fromknots sea level pressurealtimeterstation pressurevisibilityair tempwater tempwave heightnotes
2015-Apr-02 02:47 12.2
2015-Apr-02 02:32 12.2
2015-Apr-02 02:17 12.8
2015-Apr-02 02:02 12.2
2015-Apr-02 01:32 11.7
2015-Apr-02 01:17 11.7
2015-Apr-02 01:02 12.8
2015-Apr-02 00:47 13.3
2015-Apr-02 00:32 12.8
2015-Apr-02 00:17 12.2
2015-Apr-01 23:47 13.9
2015-Apr-01 23:32 13.3
2015-Apr-01 23:17 13.3
2015-Apr-01 23:02 12.8
2015-Apr-01 22:32 13.9
2015-Apr-01 22:02 13.9
2015-Apr-01 21:32 13.9
2015-Apr-01 21:17 14.4
2015-Apr-01 20:32 15.6
2015-Apr-01 20:02 15.6
2015-Apr-01 19:47 022 15.0
2015-Apr-01 19:32 15.0
2015-Apr-01 18:47 017 16.1
2015-Apr-01 18:32 072 16.1
2015-Apr-01 18:17 16.1
2015-Apr-01 17:47 16.1
2015-Apr-01 16:47 085 1 gusting 3 16.7
2015-Apr-01 16:17 067 3 gusting 6 16.7
2015-Apr-01 16:02 070 4 gusting 9 16.7
2015-Apr-01 15:32 066 3 gusting 4 17.2
2015-Apr-01 14:32 073 4 gusting 6 16.7
2015-Apr-01 14:17 092 3 gusting 8 17.2
2015-Apr-01 13:17 081 3 gusting 6 16.7
2015-Apr-01 12:47 096 4 gusting 7 16.7
2015-Apr-01 12:32 088 5 gusting 10 16.7
2015-Apr-01 12:17 091 3 gusting 7 16.7
2015-Apr-01 12:02 090 3 gusting 9 16.7
2015-Apr-01 11:47 113 1 gusting 5 17.2
2015-Apr-01 11:17 092 1 gusting 5 17.8
2015-Apr-01 10:17 089 1 gusting 5 17.8
2015-Apr-01 09:02 106 18.3
2015-Apr-01 08:32 090 0 gusting 3 17.8
2015-Apr-01 08:17 094 0 gusting 4 17.8
2015-Apr-01 08:02 17.8
2015-Apr-01 07:47 073 0 gusting 2 17.2
2015-Apr-01 07:32 065 0 gusting 2 17.2
2015-Apr-01 07:02 071 0 gusting 3 17.8
2015-Apr-01 06:47 17.8
2015-Apr-01 06:17 021 1 gusting 5 16.7
2015-Apr-01 06:02 039 2 gusting 9 16.7
2015-Apr-01 05:47 048 2 gusting 5 16.7
2015-Apr-01 04:47 042 2 gusting 6 16.7
2015-Apr-01 04:32 066 0 gusting 4 16.7
2015-Apr-01 04:02 079 0 gusting 4 17.2
2015-Apr-01 03:17 023 17.8
2015-Apr-01 02:32 343 0 gusting 1 18.3
2015-Apr-01 02:17 050 4 gusting 6 18.9
2015-Apr-01 02:02 014 5 gusting 6 18.9
2015-Apr-01 01:47 009 4 gusting 6 18.3
2015-Apr-01 01:32 004 4 gusting 6 17.8
2015-Apr-01 01:17 019 2 gusting 7 18.9
2015-Apr-01 01:02 019 6 gusting 8 18.9
2015-Apr-01 00:32 263 3 gusting 9 20.0
2015-Apr-01 00:17 233 0 gusting 4 17.8
2015-Apr-01 00:02 260 0 gusting 5 18.9
2015-Mar-31 23:32 17.8
2015-Mar-31 22:47 17.8
2015-Mar-31 22:32 106 18.9
2015-Mar-31 22:17 20.0
2015-Mar-31 22:02 21.1
2015-Mar-31 21:32 21.7
2015-Mar-31 21:17 301 0 gusting 3 21.7
2015-Mar-31 21:02 307 0 gusting 4 21.7
2015-Mar-31 20:17 308 22.2
2015-Mar-31 20:02 319 0 gusting 3 22.2
2015-Mar-31 19:47 275 2 gusting 6 22.8
2015-Mar-31 19:32 255 5 gusting 8 22.8
2015-Mar-31 19:02 263 7 gusting 9 23.3
2015-Mar-31 18:47 256 8 gusting 13 23.3
2015-Mar-31 18:32 259 6 gusting 12 22.8
2015-Mar-31 18:02 259 6 gusting 13 23.3
2015-Mar-31 17:47 256 7 gusting 14 23.3
2015-Mar-31 17:32 256 7 gusting 13 23.3
2015-Mar-31 16:17 271 5 gusting 7 24.4
2015-Mar-31 16:02 270 6 gusting 10 25.0
2015-Mar-31 15:32 257 8 gusting 12 25.6
2015-Mar-31 15:17 236 5 gusting 6 26.1
2015-Mar-31 15:02 221 4 gusting 9 26.7
2015-Mar-31 14:32 270 6 gusting 10 26.1
2015-Mar-31 14:17 239 4 gusting 7 26.1
2015-Mar-31 14:02 240 6 gusting 10 26.1
2015-Mar-31 13:47 218 5 gusting 10 25.6
2015-Mar-31 13:32 217 5 gusting 11 25.6
2015-Mar-31 13:02 213 8 gusting 12 25.0
2015-Mar-31 12:47 242 6 gusting 13 25.6
2015-Mar-31 11:47 232 5 gusting 12 25.0
2015-Mar-31 11:32 245 6 gusting 10 25.0
2015-Mar-31 11:17 224 5 gusting 10 25.0
2015-Mar-31 10:47 229 1 gusting 6 24.4
2015-Mar-31 10:32 24.4
2015-Mar-31 10:17 24.4
2015-Mar-31 10:02 294 23.9
2015-Mar-31 09:47 122 23.3
2015-Mar-31 09:02 088 0 gusting 2 21.7
2015-Mar-31 08:32 265 0 gusting 3 22.2
2015-Mar-31 08:17 239 22.2
2015-Mar-31 07:47 21.1
2015-Mar-31 07:32 21.1
2015-Mar-31 06:47 17.2
2015-Mar-31 06:02 308 17.2
2015-Mar-31 05:47 17.8
2015-Mar-31 05:32 17.8
2015-Mar-31 05:17 17.8
2015-Mar-31 04:32 19.4
2015-Mar-31 04:02 21.1
2015-Mar-31 03:47 21.7
2015-Mar-31 03:17 005 6 gusting 8 22.2